Time;durP1;ratioP1;P1;durP2;ratioP2;P2;SDS_P1;SDS_P2;PMS_P1;PMS_P2;Temp;Humidity;BMP_temperature;BMP_pressure;BME280_temperature;BME280_humidity;BME280_pressure;Samples;Min_cycle;Max_cycle;Signal;HPM_P1;HPM_P2
2020/12/02 00:00:26;;;;;;;;;;;;;;;22.10;39.42;102249.66;3127165;27;114167;-74
2020/12/02 00:01:59;;;;;;;;;;;;;;;22.11;39.47;102248.53;3137578;27;114082;-74
2020/12/02 00:03:37;;;;;;;;;;;;;;;22.10;39.34;102242.06;3136452;27;113877;-74
2020/12/02 00:05:10;;;;;;;;;;;;;;;22.10;39.58;102247.69;3122931;27;113984;-74
2020/12/02 00:06:42;;;;;;;;;;;;;;;22.10;39.60;102255.28;3120425;27;113743;-73
2020/12/02 00:08:19;;;;;;;;;;;;;;;22.10;39.57;102249.66;3134490;27;114101;-55
2020/12/02 00:09:50;;;;;;;;;;;;;;;22.10;39.45;102252.47;3136444;27;113878;-55
2020/12/02 00:11:21;;;;;;;;;;;;;;;22.10;39.84;102244.03;3134349;27;114423;-55
2020/12/02 00:12:53;;;;;;;;;;;;;;;22.09;39.72;102243.19;3121395;27;113889;-55
2020/12/02 00:14:25;;;;;;;;;;;;;;;22.09;39.55;102243.19;3134186;27;113817;-56
2020/12/02 00:15:57;;;;;;;;;;;;;;;22.08;39.68;102233.03;3136560;27;115323;-55
2020/12/02 00:17:28;;;;;;;;;;;;;;;22.08;39.61;102238.66;3134805;27;114683;-56
2020/12/02 00:19:00;;;;;;;;;;;;;;;22.07;39.67;102238.97;3134786;27;114983;-55
2020/12/02 00:20:32;;;;;;;;;;;;;;;22.06;39.75;102237.28;3136199;27;114524;-55
2020/12/02 00:22:12;;;;;;;;;;;;;;;22.06;39.78;102240.94;3135557;27;114148;-55
2020/12/02 00:23:43;;;;;;;;;;;;;;;22.07;39.78;102236.16;3126223;27;114727;-55
2020/12/02 00:25:14;;;;;;;;;;;;;;;22.05;39.99;102238.41;3136073;27;115054;-55
2020/12/02 00:26:45;;;;;;;;;;;;;;;22.05;39.80;102239.25;3134538;27;114793;-55
2020/12/02 00:28:17;;;;;;;;;;;;;;;22.05;40.07;102232.78;3134346;27;114540;-56
2020/12/02 00:29:48;;;;;;;;;;;;;;;22.03;40.10;102224.63;3135278;27;113954;-55
2020/12/02 00:31:21;;;;;;;;;;;;;;;22.02;39.97;102224.91;3135603;27;115911;-55
2020/12/02 00:32:52;;;;;;;;;;;;;;;22.02;40.05;102227.72;3135032;27;114530;-55
2020/12/02 00:34:23;;;;;;;;;;;;;;;22.01;40.00;102229.72;3135992;27;115332;-55
2020/12/02 00:35:55;;;;;;;;;;;;;;;22.00;40.08;102227.16;3139834;27;114983;-55
2020/12/02 00:37:27;;;;;;;;;;;;;;;21.99;40.01;102228.28;3135941;27;115786;-55
2020/12/02 00:38:59;;;;;;;;;;;;;;;21.98;40.07;102221.00;3134813;27;115554;-55
2020/12/02 00:40:30;;;;;;;;;;;;;;;21.97;40.28;102219.31;3121792;27;114660;-55
2020/12/02 00:42:01;;;;;;;;;;;;;;;21.96;40.06;102226.06;3130368;27;115874;-55
2020/12/02 00:43:33;;;;;;;;;;;;;;;21.94;40.16;102217.91;3134414;27;115729;-55
2020/12/02 00:45:06;;;;;;;;;;;;;;;21.93;40.52;102221.03;3135975;27;114773;-55
2020/12/02 00:46:39;;;;;;;;;;;;;;;21.92;40.22;102224.91;3135934;27;114656;-55
2020/12/02 00:48:12;;;;;;;;;;;;;;;21.91;40.46;102220.41;3135348;27;115654;-55
2020/12/02 00:49:46;;;;;;;;;;;;;;;21.89;40.17;102217.06;3134514;27;114668;-55
2020/12/02 00:51:20;;;;;;;;;;;;;;;21.88;40.27;102216.22;3136023;27;116559;-55
2020/12/02 00:52:59;;;;;;;;;;;;;;;21.87;40.43;102219.31;3134932;27;115776;-55
2020/12/02 00:54:30;;;;;;;;;;;;;;;21.86;40.44;102223.25;3121962;27;116142;-55
2020/12/02 00:56:05;;;;;;;;;;;;;;;21.84;40.51;102220.75;3130716;27;115750;-55
2020/12/02 00:57:36;;;;;;;;;;;;;;;21.83;40.41;102226.63;3137850;27;116529;-55
2020/12/02 00:59:07;;;;;;;;;;;;;;;21.83;40.57;102229.44;3134151;27;113996;-56
2020/12/02 01:00:41;;;;;;;;;;;;;;;21.81;40.68;102229.72;3135818;27;113961;-55
2020/12/02 01:02:16;;;;;;;;;;;;;;;21.80;40.30;102222.44;3121880;27;114296;-56
2020/12/02 01:03:48;;;;;;;;;;;;;;;21.78;40.69;102216.25;3130995;27;114744;-55
2020/12/02 01:05:20;;;;;;;;;;;;;;;21.77;40.61;102219.34;3122222;27;113840;-55
2020/12/02 01:06:53;;;;;;;;;;;;;;;21.76;40.77;102212.84;3130679;27;113957;-56
2020/12/02 01:08:24;;;;;;;;;;;;;;;21.74;40.63;102215.97;3122565;27;114084;-56
2020/12/02 01:09:56;;;;;;;;;;;;;;;21.72;40.65;102217.38;3134951;27;113723;-55
2020/12/02 01:11:28;;;;;;;;;;;;;;;21.73;40.66;102219.06;3120041;27;114436;-56
2020/12/02 01:13:03;;;;;;;;;;;;;;;21.71;40.90;102218.53;3120144;27;114579;-54
2020/12/02 01:14:34;;;;;;;;;;;;;;;21.69;41.00;102216.00;3117827;27;114321;-54
2020/12/02 01:16:08;;;;;;;;;;;;;;;21.68;40.80;102207.81;3130872;27;113723;-54
2020/12/02 01:17:39;;;;;;;;;;;;;;;21.66;40.91;102208.13;3129559;27;114054;-54
2020/12/02 01:19:12;;;;;;;;;;;;;;;21.65;41.11;102209.25;3128950;27;114236;-54
2020/12/02 01:20:43;;;;;;;;;;;;;;;21.63;41.01;102208.69;3139496;27;114354;-54
2020/12/02 01:22:18;;;;;;;;;;;;;;;21.62;40.90;102207.00;3134825;27;114942;-55
2020/12/02 01:23:52;;;;;;;;;;;;;;;21.60;40.72;102200.81;3121329;27;117361;-55
2020/12/02 01:25:24;;;;;;;;;;;;;;;21.59;41.25;102201.09;3120826;27;114325;-56
2020/12/02 01:27:08;;;;;;;;;;;;;;;21.58;41.26;102194.63;3134027;27;115791;-56
2020/12/02 01:28:39;;;;;;;;;;;;;;;21.55;41.27;102192.41;3133036;27;114623;-77
2020/12/02 01:30:11;;;;;;;;;;;;;;;21.53;41.29;102191.81;3135478;27;114074;-77
2020/12/02 01:31:45;;;;;;;;;;;;;;;21.52;41.44;102195.78;3135906;27;114173;-77
2020/12/02 01:33:16;;;;;;;;;;;;;;;21.51;41.21;102188.47;3136230;27;114041;-77
2020/12/02 01:34:50;;;;;;;;;;;;;;;21.51;41.40;102193.25;3135746;27;115214;-77
2020/12/02 01:36:22;;;;;;;;;;;;;;;21.49;41.17;102190.72;3136547;27;115461;-77
2020/12/02 01:37:58;;;;;;;;;;;;;;;21.47;41.18;102193.00;3134731;27;114150;-77
2020/12/02 01:39:31;;;;;;;;;;;;;;;21.45;41.49;102195.22;3132293;27;114779;-77
2020/12/02 01:41:02;;;;;;;;;;;;;;;21.44;41.48;102193.53;3133887;27;114189;-77
2020/12/02 01:42:33;;;;;;;;;;;;;;;21.44;41.61;102193.53;3138081;27;115398;-76
2020/12/02 01:44:09;;;;;;;;;;;;;;;21.42;41.61;102195.81;3135056;27;115943;-77
2020/12/02 01:45:44;;;;;;;;;;;;;;;21.40;41.37;102192.41;3136113;27;115976;-77
2020/12/02 01:47:15;;;;;;;;;;;;;;;21.39;41.68;102189.91;3135479;27;114822;-77
2020/12/02 01:48:55;;;;;;;;;;;;;;;21.37;41.44;102195.81;3129771;27;115688;-77
2020/12/02 01:50:32;;;;;;;;;;;;;;;21.35;41.32;102184.00;3135980;27;115941;-77
2020/12/02 01:52:16;;;;;;;;;;;;;;;21.33;41.44;102183.44;3135615;27;117212;-77
2020/12/02 01:54:04;;;;;;;;;;;;;;;21.31;41.38;102188.50;3134972;27;115912;-76
2020/12/02 01:55:38;;;;;;;;;;;;;;;21.31;41.35;102177.25;3122104;27;116108;-76
2020/12/02 01:57:09;;;;;;;;;;;;;;;21.30;41.67;102167.16;3130209;27;114647;-76
2020/12/02 01:58:43;;;;;;;;;;;;;;;21.28;41.59;102169.41;3133712;27;115772;-76
2020/12/02 02:00:19;;;;;;;;;;;;;;;21.24;41.88;102166.31;3135783;27;115111;-76
2020/12/02 02:02:09;;;;;;;;;;;;;;;21.23;41.81;102164.63;3136051;27;115718;-75
2020/12/02 02:03:41;;;;;;;;;;;;;;;21.20;41.53;102164.38;3135096;27;114786;-77
2020/12/02 02:05:14;;;;;;;;;;;;;;;21.19;41.84;102163.53;3138647;27;115881;-78
2020/12/02 02:07:15;;;;;;;;;;;;;;;21.18;41.62;102169.41;3135855;27;114026;-74
2020/12/02 02:08:47;;;;;;;;;;;;;;;21.16;41.75;102166.06;3123837;27;113990;-74
2020/12/02 02:10:18;;;;;;;;;;;;;;;21.14;41.63;102162.69;3135472;27;113935;-74
2020/12/02 02:11:52;;;;;;;;;;;;;;;21.13;41.81;102158.16;3120071;27;114022;-73
2020/12/02 02:13:32;;;;;;;;;;;;;;;21.13;41.93;102161.81;3130527;27;113949;-72
2020/12/02 02:15:06;;;;;;;;;;;;;;;21.12;41.76;102157.28;3121723;27;114013;-73
2020/12/02 02:16:44;;;;;;;;;;;;;;;21.10;41.97;102147.47;3129581;27;113768;-73
2020/12/02 02:18:22;;;;;;;;;;;;;;;21.08;42.00;102149.72;3134886;27;113748;-73
2020/12/02 02:19:58;;;;;;;;;;;;;;;21.08;41.85;102144.09;3132188;27;113773;-73
2020/12/02 02:21:30;;;;;;;;;;;;;;;21.04;41.95;102135.38;3133693;27;114229;-73
2020/12/02 02:23:02;;;;;;;;;;;;;;;21.04;42.01;102134.53;3134630;27;114223;-73
2020/12/02 02:24:33;;;;;;;;;;;;;;;21.05;42.02;102134.28;3121382;27;114630;-72
2020/12/02 02:26:14;;;;;;;;;;;;;;;21.04;41.63;102134.53;3130294;27;114886;-71
2020/12/02 02:27:45;;;;;;;;;;;;;;;21.02;41.79;102134.00;3136597;27;113890;-72
2020/12/02 02:29:27;;;;;;;;;;;;;;;21.00;42.11;102134.28;3134421;27;116014;-72
2020/12/02 02:30:58;;;;;;;;;;;;;;;20.99;41.55;102129.78;3134954;27;114487;-72
2020/12/02 02:32:29;;;;;;;;;;;;;;;20.97;41.96;102131.19;3134442;27;115578;-55
2020/12/02 02:34:00;;;;;;;;;;;;;;;20.97;41.84;102137.66;3133835;27;115153;-55
2020/12/02 02:35:32;;;;;;;;;;;;;;;20.94;41.79;102132.59;3135352;27;113942;-55
2020/12/02 02:37:04;;;;;;;;;;;;;;;20.94;41.78;102132.59;3134013;27;114177;-54
2020/12/02 02:38:35;;;;;;;;;;;;;;;20.91;41.77;102127.53;3127013;27;114485;-72
2020/12/02 02:40:07;;;;;;;;;;;;;;;20.90;41.82;102122.19;3134334;27;114443;-71
2020/12/02 02:41:40;;;;;;;;;;;;;;;20.88;41.87;102116.03;3132596;27;114822;-72
2020/12/02 02:43:11;;;;;;;;;;;;;;;20.87;41.96;102120.81;3133285;27;114213;-72
2020/12/02 02:44:43;;;;;;;;;;;;;;;20.86;42.06;102117.16;3120828;27;114947;-71
2020/12/02 02:46:14;;;;;;;;;;;;;;;20.85;41.92;102117.41;3130108;27;114789;-70
2020/12/02 02:47:45;;;;;;;;;;;;;;;20.84;41.85;102121.38;3133053;27;113859;-71
2020/12/02 02:49:17;;;;;;;;;;;;;;;20.82;42.06;102118.00;3139324;27;114359;-71
2020/12/02 02:50:48;;;;;;;;;;;;;;;20.81;41.98;102114.34;3123333;27;115979;-72
2020/12/02 02:52:20;;;;;;;;;;;;;;;20.80;41.91;102109.84;3132027;27;115632;-75
2020/12/02 02:53:51;;;;;;;;;;;;;;;20.78;41.93;102108.47;3137123;27;115847;-72
2020/12/02 02:55:25;;;;;;;;;;;;;;;20.76;42.21;102103.09;3136136;27;115829;-70
2020/12/02 02:56:56;;;;;;;;;;;;;;;20.78;42.31;102106.50;3139041;27;115361;-70
2020/12/02 02:58:28;;;;;;;;;;;;;;;20.76;42.39;102102.25;3128916;27;116153;-68
2020/12/02 02:59:59;;;;;;;;;;;;;;;20.74;42.26;102104.53;3122720;27;114816;-66
2020/12/02 03:01:32;;;;;;;;;;;;;;;20.74;42.12;102105.38;3132087;27;114616;-53
2020/12/02 03:03:04;;;;;;;;;;;;;;;20.73;42.05;102098.06;3135780;27;114606;-68
2020/12/02 03:04:35;;;;;;;;;;;;;;;20.74;41.90;102093.28;3135712;27;114237;-67
2020/12/02 03:06:07;;;;;;;;;;;;;;;20.71;42.16;102091.06;3136259;27;113946;-66
2020/12/02 03:07:42;;;;;;;;;;;;;;;20.68;42.30;102092.44;3136507;27;114588;-66
2020/12/02 03:09:13;;;;;;;;;;;;;;;20.67;42.03;102087.94;3136195;27;115665;-69
2020/12/02 03:10:45;;;;;;;;;;;;;;;20.64;42.01;102082.91;3135555;27;115812;-70
2020/12/02 03:12:16;;;;;;;;;;;;;;;20.66;42.30;102083.47;3137336;27;114668;-71
2020/12/02 03:13:49;;;;;;;;;;;;;;;20.66;42.27;102082.63;3121484;27;114036;-73
2020/12/02 03:15:21;;;;;;;;;;;;;;;20.65;42.21;102078.13;3119132;27;114361;-72
2020/12/02 03:16:53;;;;;;;;;;;;;;;20.60;42.08;102070.56;3132313;27;113905;-75
2020/12/02 03:18:25;;;;;;;;;;;;;;;20.62;42.18;102073.94;3135688;27;114321;-70
2020/12/02 03:20:02;;;;;;;;;;;;;;;20.60;41.99;102070.56;3135913;27;114283;-72
2020/12/02 03:21:33;;;;;;;;;;;;;;;20.60;42.11;102064.94;3136061;27;114129;-73
2020/12/02 03:23:09;;;;;;;;;;;;;;;20.59;42.26;102071.66;3111339;27;114465;-74
2020/12/02 03:24:43;;;;;;;;;;;;;;;20.57;42.29;102068.31;3119569;27;114337;-76
2020/12/02 03:26:14;;;;;;;;;;;;;;;20.56;41.92;102066.63;3116875;27;113828;-75
2020/12/02 03:27:46;;;;;;;;;;;;;;;20.54;42.29;102070.81;3130897;27;114218;-75
2020/12/02 03:29:18;;;;;;;;;;;;;;;20.54;42.25;102071.66;3136239;27;113966;-75
2020/12/02 03:30:49;;;;;;;;;;;;;;;20.52;42.10;102073.09;3136802;27;113705;-78
2020/12/02 03:32:20;;;;;;;;;;;;;;;20.53;42.12;102063.56;3136124;27;114040;-78
2020/12/02 03:33:51;;;;;;;;;;;;;;;20.52;42.23;102064.66;3139470;27;114445;-70
2020/12/02 03:35:23;;;;;;;;;;;;;;;20.49;42.23;102065.25;3129141;27;114152;-70
2020/12/02 03:36:54;;;;;;;;;;;;;;;20.48;42.25;102061.59;3123295;27;115445;-69
2020/12/02 03:38:25;;;;;;;;;;;;;;;20.47;42.43;102059.91;3127108;27;114604;-69
2020/12/02 03:39:57;;;;;;;;;;;;;;;20.46;42.42;102062.97;3135389;27;115869;-73
2020/12/02 03:41:28;;;;;;;;;;;;;;;20.44;42.28;102063.28;3134780;27;114455;-72
2020/12/02 03:42:59;;;;;;;;;;;;;;;20.43;42.24;102058.78;3135511;27;114098;-73
2020/12/02 03:44:31;;;;;;;;;;;;;;;20.40;42.47;102053.69;3135889;27;115349;-72
2020/12/02 03:46:02;;;;;;;;;;;;;;;20.39;42.55;102055.69;3136770;27;115349;-72
2020/12/02 03:47:33;;;;;;;;;;;;;;;20.37;42.63;102045.84;3136603;27;115223;-71
2020/12/02 03:49:04;;;;;;;;;;;;;;;20.37;42.44;102052.31;3121602;27;114753;-68
2020/12/02 03:50:37;;;;;;;;;;;;;;;20.36;42.43;102050.63;3131227;27;114612;-69
2020/12/02 03:52:08;;;;;;;;;;;;;;;20.36;42.46;102041.34;3135384;27;114292;-68
2020/12/02 03:53:39;;;;;;;;;;;;;;;20.37;42.47;102054.28;3132915;27;115002;-69
2020/12/02 03:55:11;;;;;;;;;;;;;;;20.35;42.45;102048.13;3120240;27;115365;-69
2020/12/02 03:56:42;;;;;;;;;;;;;;;20.32;42.66;102052.31;3130074;27;114664;-68
2020/12/02 03:58:13;;;;;;;;;;;;;;;20.31;42.31;102045.00;3134934;27;115374;-69
2020/12/02 03:59:44;;;;;;;;;;;;;;;20.31;42.20;102039.38;3135320;27;115953;-68
2020/12/02 04:01:15;;;;;;;;;;;;;;;20.30;42.37;102045.31;3135072;27;114655;-68
2020/12/02 04:02:47;;;;;;;;;;;;;;;20.27;42.33;102054.22;3135819;27;116947;-69
2020/12/02 04:04:18;;;;;;;;;;;;;;;20.26;42.13;102042.16;3135903;27;115712;-73
2020/12/02 04:05:49;;;;;;;;;;;;;;;20.26;42.32;102032.94;3136349;27;114899;-74
2020/12/02 04:07:21;;;;;;;;;;;;;;;20.24;42.55;102036.00;3135662;27;114585;-74
2020/12/02 04:08:52;;;;;;;;;;;;;;;20.24;42.41;102026.72;3136263;27;115089;-74
2020/12/02 04:10:23;;;;;;;;;;;;;;;20.22;42.36;102026.16;3135276;27;114925;-74
2020/12/02 04:11:55;;;;;;;;;;;;;;;20.23;42.43;102031.50;3116590;27;116001;-74
2020/12/02 04:13:26;;;;;;;;;;;;;;;20.19;42.18;102027.56;3115542;27;115700;-74
2020/12/02 04:14:57;;;;;;;;;;;;;;;20.17;42.31;102021.38;3131173;27;114798;-54
2020/12/02 04:16:29;;;;;;;;;;;;;;;20.17;42.49;102012.97;3137141;27;114737;-54
2020/12/02 04:18:00;;;;;;;;;;;;;;;20.18;42.50;102013.81;3134590;27;113951;-55
2020/12/02 04:19:33;;;;;;;;;;;;;;;20.19;42.45;102013.53;3135170;27;114697;-54
2020/12/02 04:21:24;;;;;;;;;;;;;;;20.15;42.43;102018.03;3138363;27;114191;-54
2020/12/02 04:22:55;;;;;;;;;;;;;;;20.16;42.35;102014.13;3134939;27;114562;-54
2020/12/02 04:24:26;;;;;;;;;;;;;;;20.13;42.26;102016.63;3135770;27;114229;-54
2020/12/02 04:25:57;;;;;;;;;;;;;;;20.10;42.19;102014.38;3120514;27;114505;-54
2020/12/02 04:27:28;;;;;;;;;;;;;;;20.12;42.18;102014.94;3129768;27;113953;-54
2020/12/02 04:29:00;;;;;;;;;;;;;;;20.12;41.97;102009.34;3111702;27;115909;-54
2020/12/02 04:30:31;;;;;;;;;;;;;;;20.10;42.27;102004.00;3125670;27;114239;-53
2020/12/02 04:32:05;;;;;;;;;;;;;;;20.08;42.22;102008.22;3134857;27;114359;-54
2020/12/02 04:33:36;;;;;;;;;;;;;;;20.06;42.00;102005.69;3134925;27;114574;-54
2020/12/02 04:35:09;;;;;;;;;;;;;;;20.05;42.19;102004.00;3119188;27;114264;-54
2020/12/02 04:36:40;;;;;;;;;;;;;;;20.04;42.29;101998.66;3129344;27;114471;-53
2020/12/02 04:38:11;;;;;;;;;;;;;;;20.04;41.95;101993.03;3133754;27;114632;-54
2020/12/02 04:39:43;;;;;;;;;;;;;;;20.02;42.26;101998.09;3125560;27;114047;-54
2020/12/02 04:41:15;;;;;;;;;;;;;;;20.00;42.15;101987.16;3119418;27;114584;-54
2020/12/02 04:42:47;;;;;;;;;;;;;;;19.99;42.42;101988.28;3132488;27;115217;-54
2020/12/02 04:44:19;;;;;;;;;;;;;;;19.98;42.05;101989.41;3134520;27;114234;-55
2020/12/02 04:45:52;;;;;;;;;;;;;;;19.96;42.09;101992.50;3135772;27;115526;-55
2020/12/02 04:47:34;;;;;;;;;;;;;;;19.93;42.36;101987.44;3134717;27;114449;-54
2020/12/02 04:49:09;;;;;;;;;;;;;;;19.94;42.40;101985.50;3133769;27;114206;-54
2020/12/02 04:51:03;;;;;;;;;;;;;;;19.93;42.13;101987.44;3130899;27;114416;-53
2020/12/02 04:52:54;;;;;;;;;;;;;;;19.88;42.40;101981.84;3131556;27;117306;-54
2020/12/02 04:54:32;;;;;;;;;;;;;;;19.89;42.49;101974.25;3135828;27;114726;-55
2020/12/02 04:56:03;;;;;;;;;;;;;;;19.87;42.37;101976.50;3135131;27;116080;-54
2020/12/02 04:57:35;;;;;;;;;;;;;;;19.86;42.49;101981.25;3130060;27;114772;-54
2020/12/02 04:59:06;;;;;;;;;;;;;;;19.85;42.65;101984.34;3134833;27;115181;-54
2020/12/02 05:00:37;;;;;;;;;;;;;;;19.84;42.59;101982.66;3135265;27;116286;-53
2020/12/02 05:02:28;;;;;;;;;;;;;;;19.81;42.68;101974.78;3138856;27;114329;-53
2020/12/02 05:04:00;;;;;;;;;;;;;;;19.82;42.50;101976.47;3134221;27;117462;-54
2020/12/02 05:05:31;;;;;;;;;;;;;;;19.80;42.57;101968.38;3135771;27;115715;-54
2020/12/02 05:07:07;;;;;;;;;;;;;;;19.79;42.66;101968.63;3135238;27;116680;-54
2020/12/02 05:08:38;;;;;;;;;;;;;;;19.79;42.43;101971.44;3121110;27;115918;-54
2020/12/02 05:10:14;;;;;;;;;;;;;;;19.78;42.54;101961.34;3130295;27;116049;-54
2020/12/02 05:11:57;;;;;;;;;;;;;;;19.77;42.87;101954.88;3132640;27;114761;-54
2020/12/02 05:13:28;;;;;;;;;;;;;;;19.76;42.83;101947.59;3133432;27;114618;-54
2020/12/02 05:15:27;;;;;;;;;;;;;;;19.75;42.89;101945.91;3135169;27;117410;-53
2020/12/02 05:17:02;;;;;;;;;;;;;;;19.74;42.81;101943.38;3132386;27;115649;-54
2020/12/02 05:18:33;;;;;;;;;;;;;;;19.73;42.63;101939.75;3134813;27;115830;-54
2020/12/02 05:20:14;;;;;;;;;;;;;;;19.72;42.75;101934.41;3120376;27;114962;-54
2020/12/02 05:21:45;;;;;;;;;;;;;;;19.71;42.90;101933.59;3131671;27;115830;-54
2020/12/02 05:23:19;;;;;;;;;;;;;;;19.71;42.68;101939.19;3134316;27;114665;-54
2020/12/02 05:24:53;;;;;;;;;;;;;;;19.71;42.91;101935.53;3137639;27;114849;-54
2020/12/02 05:26:24;;;;;;;;;;;;;;;19.74;42.95;101932.16;3119323;27;114257;-54
2020/12/02 05:28:03;;;;;;;;;;;;;;;19.77;43.09;101932.44;3129516;27;114166;-53
2020/12/02 05:29:46;;;;;;;;;;;;;;;19.80;43.14;101928.25;3134497;27;113976;-54
2020/12/02 05:31:20;;;;;;;;;;;;;;;19.83;43.03;101928.53;3133969;27;113909;-53
2020/12/02 05:33:20;;;;;;;;;;;;;;;19.86;42.97;101925.16;3132989;27;114089;-54
2020/12/02 05:34:53;;;;;;;;;;;;;;;19.90;43.08;101922.63;3111715;27;114842;-54
2020/12/02 05:36:29;;;;;;;;;;;;;;;19.93;43.31;101927.69;3130116;27;113941;-54
2020/12/02 05:38:03;;;;;;;;;;;;;;;19.95;43.31;101915.06;3133536;27;114397;-54
2020/12/02 05:39:38;;;;;;;;;;;;;;;19.98;43.24;101919.28;3134760;27;113759;-54
2020/12/02 05:41:12;;;;;;;;;;;;;;;20.03;43.22;101926.88;3133436;27;114233;-54
2020/12/02 05:42:51;;;;;;;;;;;;;;;20.05;43.30;101924.59;3110891;27;114458;-54
2020/12/02 05:44:36;;;;;;;;;;;;;;;20.10;43.10;101927.41;3131427;27;114112;-54
2020/12/02 05:46:10;;;;;;;;;;;;;;;20.14;43.16;101920.09;3134826;27;113762;-54
2020/12/02 05:47:41;;;;;;;;;;;;;;;20.17;43.09;101925.16;3123362;27;114096;-54
2020/12/02 05:49:16;;;;;;;;;;;;;;;20.20;42.98;101925.44;3118636;27;115392;-54
2020/12/02 05:50:48;;;;;;;;;;;;;;;20.24;43.16;101922.91;3120915;27;114205;-54
2020/12/02 05:52:19;;;;;;;;;;;;;;;20.28;43.21;101919.25;3129465;27;114642;-54
2020/12/02 05:53:58;;;;;;;;;;;;;;;20.32;42.92;101913.94;3133644;27;115390;-54
2020/12/02 05:55:32;;;;;;;;;;;;;;;20.35;42.90;101902.97;3120299;27;114234;-54
2020/12/02 05:57:06;;;;;;;;;;;;;;;20.38;42.92;101905.22;3129507;27;115125;-54
2020/12/02 05:58:40;;;;;;;;;;;;;;;20.43;42.81;101907.19;3133369;27;115176;-54
2020/12/02 06:00:11;;;;;;;;;;;;;;;20.47;43.54;101908.28;3134216;27;115071;-54
2020/12/02 06:01:43;;;;;;;;;;;;;;;20.51;43.49;101909.41;3134502;27;114574;-54
2020/12/02 06:03:17;;;;;;;;;;;;;;;20.55;43.16;101909.66;3134273;27;114757;-54
2020/12/02 06:04:50;;;;;;;;;;;;;;;20.57;43.14;101908.28;3133838;27;115250;-54
2020/12/02 06:06:22;;;;;;;;;;;;;;;20.61;42.88;101906.56;3134465;27;115266;-54
2020/12/02 06:07:55;;;;;;;;;;;;;;;20.66;42.79;101894.47;3133377;27;115003;-54
2020/12/02 06:09:41;;;;;;;;;;;;;;;20.67;42.98;101885.75;3118424;27;115473;-54
2020/12/02 06:11:15;;;;;;;;;;;;;;;20.71;42.83;101886.88;3129482;27;114530;-54
2020/12/02 06:12:47;;;;;;;;;;;;;;;20.73;42.78;101887.44;3132177;27;114593;-54
2020/12/02 06:14:29;;;;;;;;;;;;;;;20.76;42.70;101895.25;3115598;27;115793;-54
2020/12/02 06:16:00;;;;;;;;;;;;;;;20.79;42.54;101886.28;3124565;27;114724;-73
2020/12/02 06:17:32;;;;;;;;;;;;;;;20.81;42.20;101886.81;3134834;27;114699;-72
2020/12/02 06:19:10;;;;;;;;;;;;;;;20.84;42.37;101886.28;3119962;27;115358;-74
2020/12/02 06:20:44;;;;;;;;;;;;;;;20.88;42.40;101888.50;3130697;27;114781;-74
2020/12/02 06:22:29;;;;;;;;;;;;;;;20.91;42.21;101897.19;3121592;27;115800;-74
2020/12/02 06:24:01;;;;;;;;;;;;;;;20.95;42.36;101901.09;3131648;27;115001;-73
2020/12/02 06:25:47;;;;;;;;;;;;;;;20.98;42.19;101896.88;3135354;27;116044;-72
2020/12/02 06:27:44;;;;;;;;;;;;;;;21.00;42.18;101891.78;3133489;27;118688;-73
2020/12/02 06:29:33;;;;;;;;;;;;;;;21.03;42.03;101883.63;3131457;27;115906;-73
2020/12/02 06:31:07;;;;;;;;;;;;;;;21.06;41.72;101890.66;3132869;27;114554;-74
2020/12/02 06:32:38;;;;;;;;;;;;;;;21.10;42.03;101905.78;3134139;27;115023;-72
2020/12/02 06:34:21;;;;;;;;;;;;;;;21.10;41.68;101906.63;3123668;27;117276;-72
2020/12/02 06:36:01;;;;;;;;;;;;;;;21.13;42.08;101906.09;3120495;27;113765;-72
2020/12/02 06:37:33;;;;;;;;;;;;;;;21.16;41.98;101908.34;3131415;27;114336;-69
2020/12/02 06:39:14;;;;;;;;;;;;;;;21.18;41.96;101908.03;3120497;27;114616;-69
2020/12/02 06:41:04;;;;;;;;;;;;;;;21.21;41.81;101902.66;3125671;27;114232;-69
2020/12/02 06:42:38;;;;;;;;;;;;;;;21.23;41.68;101910.81;3126554;27;114046;-69
2020/12/02 06:44:17;;;;;;;;;;;;;;;21.26;41.53;101913.03;3133969;27;113975;-69
2020/12/02 06:45:48;;;;;;;;;;;;;;;21.28;41.56;101905.16;3127248;27;114323;-70
2020/12/02 06:47:23;;;;;;;;;;;;;;;21.30;41.46;101914.16;3134119;27;114023;-69
2020/12/02 06:48:54;;;;;;;;;;;;;;;21.32;41.31;101905.41;3119618;27;113816;-73
2020/12/02 06:50:29;;;;;;;;;;;;;;;21.35;41.47;101913.28;3130796;27;114199;-72
2020/12/02 06:52:02;;;;;;;;;;;;;;;21.35;41.47;101908.47;3134224;27;113686;-74
2020/12/02 06:53:33;;;;;;;;;;;;;;;21.39;41.53;101903.13;3135130;27;114053;-72
2020/12/02 06:55:12;;;;;;;;;;;;;;;21.42;41.47;101906.19;3127199;27;114102;-72
2020/12/02 06:56:43;;;;;;;;;;;;;;;21.44;41.31;101903.91;3137438;27;114263;-72
2020/12/02 06:58:16;;;;;;;;;;;;;;;21.46;41.30;101901.66;3119935;27;115107;-73
2020/12/02 06:59:58;;;;;;;;;;;;;;;21.48;41.02;101899.44;3130236;27;115368;-72
2020/12/02 07:01:31;;;;;;;;;;;;;;;21.50;41.27;101905.56;3134008;27;115307;-73
2020/12/02 07:03:03;;;;;;;;;;;;;;;21.52;41.16;101896.88;3120839;27;115124;-71
2020/12/02 07:04:36;;;;;;;;;;;;;;;21.54;40.99;101898.22;3120368;27;116472;-71
2020/12/02 07:06:27;;;;;;;;;;;;;;;21.56;40.89;101895.97;3130100;27;114580;-72
2020/12/02 07:08:12;;;;;;;;;;;;;;;21.58;40.99;101893.69;3134346;27;114096;-72
2020/12/02 07:10:08;;;;;;;;;;;;;;;21.61;40.85;101886.66;3135271;27;115115;-72
2020/12/02 07:12:01;;;;;;;;;;;;;;;21.62;40.97;101894.78;3130341;27;114298;-72
2020/12/02 07:13:36;;;;;;;;;;;;;;;21.64;41.04;101892.53;3131539;27;115366;-71
2020/12/02 07:15:10;;;;;;;;;;;;;;;21.66;41.00;101895.91;3134844;27;115289;-71
2020/12/02 07:16:42;;;;;;;;;;;;;;;21.68;40.86;101882.38;3134523;27;116202;-71
2020/12/02 07:18:15;;;;;;;;;;;;;;;21.70;40.65;101877.31;3120779;27;115710;-71
2020/12/02 07:19:48;;;;;;;;;;;;;;;21.72;40.50;101875.03;3133952;27;115184;-71
2020/12/02 07:21:25;;;;;;;;;;;;;;;21.73;40.94;101882.34;3135166;27;115853;-71
2020/12/02 07:22:57;;;;;;;;;;;;;;;21.75;40.62;101879.25;3134711;27;115771;-71
2020/12/02 07:24:32;;;;;;;;;;;;;;;21.78;40.75;101875.00;3121345;27;115335;-74
2020/12/02 07:26:03;;;;;;;;;;;;;;;21.78;40.89;101878.66;3125885;27;115838;-71
2020/12/02 07:27:39;;;;;;;;;;;;;;;21.83;41.49;101874.94;3120008;27;116135;-73
2020/12/02 07:29:14;;;;;;;;;;;;;;;21.85;41.12;101881.13;3131157;27;114621;-76
2020/12/02 07:30:47;;;;;;;;;;;;;;;21.85;41.08;101876.31;3129817;27;114838;-77
2020/12/02 07:32:20;;;;;;;;;;;;;;;21.87;40.73;101876.03;3135185;27;117614;-76
2020/12/02 07:34:02;;;;;;;;;;;;;;;21.88;40.79;101874.91;3135183;27;114920;-76
2020/12/02 07:35:36;;;;;;;;;;;;;;;21.89;40.72;101877.44;3135461;27;115171;-76
2020/12/02 07:37:16;;;;;;;;;;;;;;;21.91;40.96;101869.53;3123102;27;115137;-78
2020/12/02 07:38:48;;;;;;;;;;;;;;;21.93;40.69;101863.66;3132944;27;114494;-72
2020/12/02 07:40:24;;;;;;;;;;;;;;;21.94;40.59;101856.88;3122598;27;115034;-73
2020/12/02 07:42:05;;;;;;;;;;;;;;;21.94;40.72;101860.50;3122300;27;115690;-74
2020/12/02 07:43:39;;;;;;;;;;;;;;;21.97;40.70;101859.09;3124915;27;114190;-76
2020/12/02 07:45:13;;;;;;;;;;;;;;;21.98;40.74;101856.00;3116494;27;114480;-76
2020/12/02 07:46:45;;;;;;;;;;;;;;;21.99;41.00;101854.00;3132818;27;114137;-74
2020/12/02 07:48:30;;;;;;;;;;;;;;;22.01;40.92;101858.22;3136955;27;114064;-73
2020/12/02 07:50:04;;;;;;;;;;;;;;;22.03;40.66;101849.47;3135526;27;114096;-74
2020/12/02 07:51:40;;;;;;;;;;;;;;;22.03;40.56;101841.84;3123152;27;114444;-73
2020/12/02 07:53:30;;;;;;;;;;;;;;;22.05;40.59;101841.56;3118421;27;114255;-55
2020/12/02 07:55:02;;;;;;;;;;;;;;;22.06;40.52;101843.25;3134418;27;114156;-55
2020/12/02 07:56:35;;;;;;;;;;;;;;;22.08;40.47;101846.59;3134777;27;114216;-55
2020/12/02 07:58:11;;;;;;;;;;;;;;;22.09;40.51;101843.47;3120411;27;113881;-55
2020/12/02 07:59:47;;;;;;;;;;;;;;;22.10;40.75;101827.44;3119558;27;114135;-55